sensor_id;sensor_type;location;lat;lon;timestamp;pressure;altitude;pressure_sealevel;temperature;humidity
33697;BME280;20031;43.416;23.232;2023-11-22T00:01:15;99438.88;;;9.53;92.84
33697;BME280;20031;43.416;23.232;2023-11-22T00:03:41;99443.91;;;9.54;92.78
33697;BME280;20031;43.416;23.232;2023-11-22T00:06:06;99453.31;;;9.55;92.82
33697;BME280;20031;43.416;23.232;2023-11-22T00:08:32;99453.97;;;9.57;92.30
33697;BME280;20031;43.416;23.232;2023-11-22T00:10:58;99447.97;;;9.57;92.60
33697;BME280;20031;43.416;23.232;2023-11-22T00:13:24;99434.34;;;9.55;92.54
33697;BME280;20031;43.416;23.232;2023-11-22T00:15:49;99434.34;;;9.55;92.92
33697;BME280;20031;43.416;23.232;2023-11-22T00:18:15;99439.53;;;9.55;92.90
33697;BME280;20031;43.416;23.232;2023-11-22T00:20:41;99441.13;;;9.56;93.11
33697;BME280;20031;43.416;23.232;2023-11-22T00:23:06;99444.72;;;9.55;92.39
33697;BME280;20031;43.416;23.232;2023-11-22T00:25:32;99442.44;;;9.52;92.60
33697;BME280;20031;43.416;23.232;2023-11-22T00:27:58;99441.81;;;9.50;92.59
33697;BME280;20031;43.416;23.232;2023-11-22T00:30:24;99440.84;;;9.51;92.52
33697;BME280;20031;43.416;23.232;2023-11-22T00:32:49;99440.84;;;9.51;92.49
33697;BME280;20031;43.416;23.232;2023-11-22T00:35:15;99430.78;;;9.48;92.93
33697;BME280;20031;43.416;23.232;2023-11-22T00:37:40;99434.00;;;9.50;92.77
33697;BME280;20031;43.416;23.232;2023-11-22T00:40:06;99427.00;;;9.50;92.77
33697;BME280;20031;43.416;23.232;2023-11-22T00:42:41;99436.44;;;9.51;92.50
33697;BME280;20031;43.416;23.232;2023-11-22T00:45:10;99432.22;;;9.50;92.70
33697;BME280;20031;43.416;23.232;2023-11-22T00:47:36;99437.41;;;9.50;92.57
33697;BME280;20031;43.416;23.232;2023-11-22T00:50:03;99443.44;;;9.51;92.79
33697;BME280;20031;43.416;23.232;2023-11-22T00:52:32;99437.25;;;9.52;92.50
33697;BME280;20031;43.416;23.232;2023-11-22T00:54:58;99441.81;;;9.50;92.69
33697;BME280;20031;43.416;23.232;2023-11-22T00:57:23;99445.19;;;9.50;92.95
33697;BME280;20031;43.416;23.232;2023-11-22T00:59:48;99455.25;;;9.53;92.86
33697;BME280;20031;43.416;23.232;2023-11-22T01:02:15;99443.09;;;9.54;92.51
33697;BME280;20031;43.416;23.232;2023-11-22T01:04:40;99438.69;;;9.54;92.66
33697;BME280;20031;43.416;23.232;2023-11-22T01:07:06;99439.66;;;9.53;93.22
33697;BME280;20031;43.416;23.232;2023-11-22T01:09:32;99431.56;;;9.56;92.82
33697;BME280;20031;43.416;23.232;2023-11-22T01:11:58;99423.59;;;9.58;92.70
33697;BME280;20031;43.416;23.232;2023-11-22T01:14:24;99411.22;;;9.60;92.93
33697;BME280;20031;43.416;23.232;2023-11-22T01:16:51;99417.91;;;9.54;92.67
33697;BME280;20031;43.416;23.232;2023-11-22T01:19:16;99444.06;;;9.53;92.94
33697;BME280;20031;43.416;23.232;2023-11-22T01:21:42;99447.47;;;9.53;92.71
33697;BME280;20031;43.416;23.232;2023-11-22T01:24:08;99435.13;;;9.55;93.26
33697;BME280;20031;43.416;23.232;2023-11-22T01:26:33;99436.44;;;9.59;93.75
33697;BME280;20031;43.416;23.232;2023-11-22T01:28:59;99437.22;;;9.60;93.43
33697;BME280;20031;43.416;23.232;2023-11-22T01:31:25;99437.41;;;9.58;92.85
33697;BME280;20031;43.416;23.232;2023-11-22T01:33:53;99431.41;;;9.58;93.13
33697;BME280;20031;43.416;23.232;2023-11-22T01:36:18;99424.56;;;9.57;93.13
33697;BME280;20031;43.416;23.232;2023-11-22T01:38:44;99425.19;;;9.59;92.93
33697;BME280;20031;43.416;23.232;2023-11-22T01:41:11;99424.22;;;9.60;93.09
33697;BME280;20031;43.416;23.232;2023-11-22T01:43:39;99426.81;;;9.60;93.13
33697;BME280;20031;43.416;23.232;2023-11-22T01:46:07;99418.41;;;9.58;93.03
33697;BME280;20031;43.416;23.232;2023-11-22T01:48:33;99418.41;;;9.58;92.84
33697;BME280;20031;43.416;23.232;2023-11-22T01:51:00;99416.13;;;9.55;93.17
33697;BME280;20031;43.416;23.232;2023-11-22T01:53:26;99416.13;;;9.55;92.39
33697;BME280;20031;43.416;23.232;2023-11-22T01:55:51;99418.75;;;9.55;93.16
33697;BME280;20031;43.416;23.232;2023-11-22T01:58:17;99403.16;;;9.55;92.92
33697;BME280;20031;43.416;23.232;2023-11-22T02:00:49;99403.94;;;9.55;92.97
33697;BME280;20031;43.416;23.232;2023-11-22T02:03:15;99405.06;;;9.53;93.18
33697;BME280;20031;43.416;23.232;2023-11-22T02:05:45;99408.66;;;9.52;93.42
33697;BME280;20031;43.416;23.232;2023-11-22T02:08:11;99399.88;;;9.53;93.17
33697;BME280;20031;43.416;23.232;2023-11-22T02:10:37;99398.25;;;9.52;93.35
33697;BME280;20031;43.416;23.232;2023-11-22T02:13:06;99390.44;;;9.52;92.97
33697;BME280;20031;43.416;23.232;2023-11-22T02:15:34;99387.22;;;9.50;92.83
33697;BME280;20031;43.416;23.232;2023-11-22T02:18:00;99392.41;;;9.50;93.35
33697;BME280;20031;43.416;23.232;2023-11-22T02:20:26;99391.78;;;9.48;93.38
33697;BME280;20031;43.416;23.232;2023-11-22T02:22:52;99394.38;;;9.48;93.09
33697;BME280;20031;43.416;23.232;2023-11-22T02:25:18;99394.06;;;9.51;93.13
33697;BME280;20031;43.416;23.232;2023-11-22T02:27:44;99386.59;;;9.48;93.35
33697;BME280;20031;43.416;23.232;2023-11-22T02:30:09;99401.03;;;9.50;93.60
33697;BME280;20031;43.416;23.232;2023-11-22T02:32:36;99406.38;;;9.49;93.39
33697;BME280;20031;43.416;23.232;2023-11-22T02:35:02;99404.78;;;9.48;93.60
33697;BME280;20031;43.416;23.232;2023-11-22T02:37:32;99409.66;;;9.51;93.40
33697;BME280;20031;43.416;23.232;2023-11-22T02:40:06;99391.44;;;9.51;93.45
33697;BME280;20031;43.416;23.232;2023-11-22T02:42:34;99390.28;;;9.53;93.58
33697;BME280;20031;43.416;23.232;2023-11-22T02:44:59;99395.03;;;9.50;93.22
33697;BME280;20031;43.416;23.232;2023-11-22T02:47:25;99399.25;;;9.51;93.46
33697;BME280;20031;43.416;23.232;2023-11-22T02:49:52;99386.09;;;9.44;93.33
33697;BME280;20031;43.416;23.232;2023-11-22T02:52:17;99395.03;;;9.50;93.53
33697;BME280;20031;43.416;23.232;2023-11-22T02:54:43;99400.84;;;9.52;93.66
33697;BME280;20031;43.416;23.232;2023-11-22T02:57:11;99422.63;;;9.51;93.59
33697;BME280;20031;43.416;23.232;2023-11-22T02:59:37;99425.06;;;9.52;93.50
33697;BME280;20031;43.416;23.232;2023-11-22T03:02:02;99422.63;;;9.51;93.88
33697;BME280;20031;43.416;23.232;2023-11-22T03:04:28;99427.00;;;9.50;93.72
33697;BME280;20031;43.416;23.232;2023-11-22T03:06:53;99420.50;;;9.54;93.56
33697;BME280;20031;43.416;23.232;2023-11-22T03:09:20;99422.13;;;9.55;93.33
33697;BME280;20031;43.416;23.232;2023-11-22T03:11:48;99418.75;;;9.55;93.82
33697;BME280;20031;43.416;23.232;2023-11-22T03:14:13;99411.56;;;9.57;93.83
33697;BME280;20031;43.416;23.232;2023-11-22T03:16:39;99420.00;;;9.59;94.18
33697;BME280;20031;43.416;23.232;2023-11-22T03:19:05;99423.44;;;9.59;93.88
33697;BME280;20031;43.416;23.232;2023-11-22T03:21:32;99416.44;;;9.60;93.59
33697;BME280;20031;43.416;23.232;2023-11-22T03:23:57;99410.78;;;9.56;93.52
33697;BME280;20031;43.416;23.232;2023-11-22T03:26:23;99419.53;;;9.55;93.63
33697;BME280;20031;43.416;23.232;2023-11-22T03:28:48;99429.75;;;9.57;93.51
33697;BME280;20031;43.416;23.232;2023-11-22T03:31:14;99424.91;;;9.54;94.02
33697;BME280;20031;43.416;23.232;2023-11-22T03:33:39;99429.13;;;9.55;93.68
33697;BME280;20031;43.416;23.232;2023-11-22T03:36:05;99436.59;;;9.58;94.02
33697;BME280;20031;43.416;23.232;2023-11-22T03:38:31;99439.81;;;9.60;93.75
33697;BME280;20031;43.416;23.232;2023-11-22T03:40:56;99437.84;;;9.62;93.89
33697;BME280;20031;43.416;23.232;2023-11-22T03:43:22;99436.88;;;9.63;94.03
33697;BME280;20031;43.416;23.232;2023-11-22T03:45:47;99442.09;;;9.63;93.60
33697;BME280;20031;43.416;23.232;2023-11-22T03:48:13;99437.22;;;9.60;93.75
33697;BME280;20031;43.416;23.232;2023-11-22T03:50:38;99445.38;;;9.57;93.61
33697;BME280;20031;43.416;23.232;2023-11-22T03:53:03;99453.16;;;9.57;93.39
33697;BME280;20031;43.416;23.232;2023-11-22T03:55:29;99450.91;;;9.54;93.48
33697;BME280;20031;43.416;23.232;2023-11-22T03:57:54;99451.06;;;9.52;93.58
33697;BME280;20031;43.416;23.232;2023-11-22T04:00:20;99448.63;;;9.51;93.94
33697;BME280;20031;43.416;23.232;2023-11-22T04:02:45;99449.78;;;9.48;93.59
33697;BME280;20031;43.416;23.232;2023-11-22T04:05:11;99445.38;;;9.49;93.76
33697;BME280;20031;43.416;23.232;2023-11-22T04:07:37;99441.00;;;9.49;93.75
33697;BME280;20031;43.416;23.232;2023-11-22T04:10:05;99434.97;;;9.49;94.09
33697;BME280;20031;43.416;23.232;2023-11-22T04:12:31;99440.16;;;9.49;94.23
33697;BME280;20031;43.416;23.232;2023-11-22T04:14:57;99452.53;;;9.47;94.14
33697;BME280;20031;43.416;23.232;2023-11-22T04:17:23;99486.50;;;9.45;93.63
33697;BME280;20031;43.416;23.232;2023-11-22T04:19:48;99476.44;;;9.42;93.83
33697;BME280;20031;43.416;23.232;2023-11-22T04:22:14;99470.91;;;9.45;94.09
33697;BME280;20031;43.416;23.232;2023-11-22T04:24:39;99470.09;;;9.45;94.13
33697;BME280;20031;43.416;23.232;2023-11-22T04:27:05;99476.09;;;9.45;93.85
33697;BME280;20031;43.416;23.232;2023-11-22T04:29:30;99465.69;;;9.45;94.06
33697;BME280;20031;43.416;23.232;2023-11-22T04:31:56;99473.66;;;9.44;94.01
33697;BME280;20031;43.416;23.232;2023-11-22T04:34:21;99474.63;;;9.43;94.23
33697;BME280;20031;43.416;23.232;2023-11-22T04:36:47;99479.66;;;9.44;93.93
33697;BME280;20031;43.416;23.232;2023-11-22T04:39:12;99483.25;;;9.43;94.13
33697;BME280;20031;43.416;23.232;2023-11-22T04:41:38;99494.44;;;9.44;94.47
33697;BME280;20031;43.416;23.232;2023-11-22T04:44:04;99498.84;;;9.43;94.09
33697;BME280;20031;43.416;23.232;2023-11-22T04:46:29;99510.84;;;9.44;94.57
33697;BME280;20031;43.416;23.232;2023-11-22T04:48:55;99512.81;;;9.42;94.07
33697;BME280;20031;43.416;23.232;2023-11-22T04:51:21;99521.25;;;9.44;94.41
33697;BME280;20031;43.416;23.232;2023-11-22T04:53:46;99516.88;;;9.45;94.83
33697;BME280;20031;43.416;23.232;2023-11-22T04:56:12;99511.69;;;9.45;94.50
33697;BME280;20031;43.416;23.232;2023-11-22T04:58:37;99525.31;;;9.47;94.65
33697;BME280;20031;43.416;23.232;2023-11-22T05:01:03;99525.31;;;9.47;94.91
33697;BME280;20031;43.416;23.232;2023-11-22T05:03:29;99533.09;;;9.47;94.37
33697;BME280;20031;43.416;23.232;2023-11-22T05:05:55;99535.88;;;9.45;94.50
33697;BME280;20031;43.416;23.232;2023-11-22T05:08:20;99542.84;;;9.45;94.25
33697;BME280;20031;43.416;23.232;2023-11-22T05:10:46;99545.28;;;9.46;94.55
33697;BME280;20031;43.416;23.232;2023-11-22T05:13:11;99544.63;;;9.44;94.64
33697;BME280;20031;43.416;23.232;2023-11-22T05:15:37;99547.06;;;9.46;94.52
33697;BME280;20031;43.416;23.232;2023-11-22T05:18:03;99560.06;;;9.46;94.74
33697;BME280;20031;43.416;23.232;2023-11-22T05:20:28;99555.69;;;9.46;94.65
33697;BME280;20031;43.416;23.232;2023-11-22T05:22:53;99565.25;;;9.46;94.64
33697;BME280;20031;43.416;23.232;2023-11-22T05:25:19;99567.84;;;9.46;94.85
33697;BME280;20031;43.416;23.232;2023-11-22T05:27:44;99573.72;;;9.48;95.12
33697;BME280;20031;43.416;23.232;2023-11-22T05:30:10;99574.69;;;9.47;94.92
33697;BME280;20031;43.416;23.232;2023-11-22T05:32:36;99578.91;;;9.48;95.09
33697;BME280;20031;43.416;23.232;2023-11-22T05:35:02;99580.84;;;9.46;94.71
33697;BME280;20031;43.416;23.232;2023-11-22T05:37:28;99577.91;;;9.49;95.17
33697;BME280;20031;43.416;23.232;2023-11-22T05:39:54;99586.72;;;9.48;95.35
33697;BME280;20031;43.416;23.232;2023-11-22T05:42:20;99584.91;;;9.48;95.12
33697;BME280;20031;43.416;23.232;2023-11-22T05:44:45;99580.53;;;9.49;94.86
33697;BME280;20031;43.416;23.232;2023-11-22T05:47:11;99576.47;;;9.46;94.93
33697;BME280;20031;43.416;23.232;2023-11-22T05:49:38;99580.69;;;9.47;94.96
33697;BME280;20031;43.416;23.232;2023-11-22T05:52:04;99588.47;;;9.47;95.18
33697;BME280;20031;43.416;23.232;2023-11-22T05:54:30;99593.34;;;9.50;95.29
33697;BME280;20031;43.416;23.232;2023-11-22T05:56:55;99601.31;;;9.49;95.22
33697;BME280;20031;43.416;23.232;2023-11-22T05:59:20;99597.09;;;9.48;95.28
33697;BME280;20031;43.416;23.232;2023-11-22T06:01:46;99603.75;;;9.50;95.27
33697;BME280;20031;43.416;23.232;2023-11-22T06:04:11;99605.22;;;9.53;95.33
33697;BME280;20031;43.416;23.232;2023-11-22T06:06:37;99607.81;;;9.53;95.38
33697;BME280;20031;43.416;23.232;2023-11-22T06:09:03;99606.03;;;9.53;95.56
33697;BME280;20031;43.416;23.232;2023-11-22T06:11:30;99599.84;;;9.54;95.09
33697;BME280;20031;43.416;23.232;2023-11-22T06:13:56;99609.13;;;9.57;95.11
33697;BME280;20031;43.416;23.232;2023-11-22T06:16:22;99608.97;;;9.58;95.55
33697;BME280;20031;43.416;23.232;2023-11-22T06:18:47;99610.59;;;9.59;95.36
33697;BME280;20031;43.416;23.232;2023-11-22T06:21:13;99624.88;;;9.63;95.65
33697;BME280;20031;43.416;23.232;2023-11-22T06:23:38;99626.66;;;9.63;95.39
33697;BME280;20031;43.416;23.232;2023-11-22T06:26:04;99628.28;;;9.64;95.78
33697;BME280;20031;43.416;23.232;2023-11-22T06:28:29;99633.16;;;9.66;95.42
33697;BME280;20031;43.416;23.232;2023-11-22T06:30:54;99640.97;;;9.66;95.55
33697;BME280;20031;43.416;23.232;2023-11-22T06:33:20;99657.38;;;9.67;95.73
33697;BME280;20031;43.416;23.232;2023-11-22T06:35:45;99658.53;;;9.65;95.21
33697;BME280;20031;43.416;23.232;2023-11-22T06:38:11;99661.94;;;9.65;95.50
33697;BME280;20031;43.416;23.232;2023-11-22T06:40:36;99662.72;;;9.65;95.75
33697;BME280;20031;43.416;23.232;2023-11-22T06:43:02;99660.81;;;9.67;95.70
33697;BME280;20031;43.416;23.232;2023-11-22T06:45:29;99668.59;;;9.67;95.68
33697;BME280;20031;43.416;23.232;2023-11-22T06:47:56;99674.59;;;9.68;95.63
33697;BME280;20031;43.416;23.232;2023-11-22T06:50:21;99682.25;;;9.69;95.82
33697;BME280;20031;43.416;23.232;2023-11-22T06:52:47;99687.28;;;9.71;95.55
33697;BME280;20031;43.416;23.232;2023-11-22T06:55:15;99687.44;;;9.69;95.89
33697;BME280;20031;43.416;23.232;2023-11-22T06:57:40;99692.63;;;9.69;95.82
33697;BME280;20031;43.416;23.232;2023-11-22T07:00:06;99697.03;;;9.69;95.52
33697;BME280;20031;43.416;23.232;2023-11-22T07:02:35;99683.19;;;9.68;95.66
33697;BME280;20031;43.416;23.232;2023-11-22T07:05:02;99690.03;;;9.69;95.68
33697;BME280;20031;43.416;23.232;2023-11-22T07:07:38;99698.47;;;9.71;95.90
33697;BME280;20031;43.416;23.232;2023-11-22T07:10:05;99698.19;;;9.74;95.94
33697;BME280;20031;43.416;23.232;2023-11-22T07:12:33;99705.97;;;9.74;95.78
33697;BME280;20031;43.416;23.232;2023-11-22T07:15:02;99704.66;;;9.78;96.17
33697;BME280;20031;43.416;23.232;2023-11-22T07:17:28;99703.84;;;9.78;95.67
33697;BME280;20031;43.416;23.232;2023-11-22T07:19:54;99707.94;;;9.80;95.60
33697;BME280;20031;43.416;23.232;2023-11-22T07:22:20;99710.53;;;9.80;95.90
33697;BME280;20031;43.416;23.232;2023-11-22T07:24:49;99712.31;;;9.80;95.60
33697;BME280;20031;43.416;23.232;2023-11-22T07:27:19;99717.66;;;9.78;95.53
33697;BME280;20031;43.416;23.232;2023-11-22T07:29:46;99718.66;;;9.77;95.48
33697;BME280;20031;43.416;23.232;2023-11-22T07:32:12;99726.47;;;9.77;95.47
33697;BME280;20031;43.416;23.232;2023-11-22T07:34:39;99723.03;;;9.77;95.91
33697;BME280;20031;43.416;23.232;2023-11-22T07:37:06;99732.13;;;9.81;95.79
33697;BME280;20031;43.416;23.232;2023-11-22T07:39:35;99741.41;;;9.83;96.08
33697;BME280;20031;43.416;23.232;2023-11-22T07:42:05;99742.22;;;9.84;96.29
33697;BME280;20031;43.416;23.232;2023-11-22T07:44:34;99746.63;;;9.83;95.36
33697;BME280;20031;43.416;23.232;2023-11-22T07:47:04;99731.97;;;9.82;96.18
33697;BME280;20031;43.416;23.232;2023-11-22T07:49:34;99733.13;;;9.88;95.94
33697;BME280;20031;43.416;23.232;2023-11-22T07:52:04;99733.94;;;9.88;95.95
33697;BME280;20031;43.416;23.232;2023-11-22T07:54:31;99732.78;;;9.91;96.00
33697;BME280;20031;43.416;23.232;2023-11-22T07:56:57;99729.06;;;9.93;96.14
33697;BME280;20031;43.416;23.232;2023-11-22T07:59:23;99728.13;;;9.94;96.02
33697;BME280;20031;43.416;23.232;2023-11-22T08:01:48;99737.53;;;9.95;95.84
33697;BME280;20031;43.416;23.232;2023-11-22T08:04:14;99739.00;;;9.98;95.87
33697;BME280;20031;43.416;23.232;2023-11-22T08:06:40;99733.81;;;9.98;95.84
33697;BME280;20031;43.416;23.232;2023-11-22T08:09:06;99737.88;;;10.00;95.73
33697;BME280;20031;43.416;23.232;2023-11-22T08:11:33;99730.25;;;9.99;96.03
33697;BME280;20031;43.416;23.232;2023-11-22T08:13:59;99739.47;;;10.01;95.61
33697;BME280;20031;43.416;23.232;2023-11-22T08:16:25;99742.75;;;10.03;96.24
33697;BME280;20031;43.416;23.232;2023-11-22T08:18:51;99749.09;;;10.01;95.62
33697;BME280;20031;43.416;23.232;2023-11-22T08:21:16;99754.78;;;10.04;95.86
33697;BME280;20031;43.416;23.232;2023-11-22T08:23:42;99756.41;;;10.05;96.21
33697;BME280;20031;43.416;23.232;2023-11-22T08:26:08;99754.47;;;10.07;96.11
33697;BME280;20031;43.416;23.232;2023-11-22T08:28:34;99748.59;;;10.05;95.89
33697;BME280;20031;43.416;23.232;2023-11-22T08:31:00;99751.19;;;10.05;95.52
33697;BME280;20031;43.416;23.232;2023-11-22T08:33:44;99751.19;;;10.05;95.74
33697;BME280;20031;43.416;23.232;2023-11-22T08:36:09;99758.84;;;10.07;95.99
33697;BME280;20031;43.416;23.232;2023-11-22T08:38:35;99752.66;;;10.08;95.79
33697;BME280;20031;43.416;23.232;2023-11-22T08:41:05;99758.84;;;10.07;95.67
33697;BME280;20031;43.416;23.232;2023-11-22T08:43:36;99773.31;;;10.09;95.79
33697;BME280;20031;43.416;23.232;2023-11-22T08:46:02;99768.13;;;10.09;95.89
33697;BME280;20031;43.416;23.232;2023-11-22T08:48:32;99773.00;;;10.12;96.07
33697;BME280;20031;43.416;23.232;2023-11-22T08:50:58;99778.88;;;10.14;95.48
33697;BME280;20031;43.416;23.232;2023-11-22T08:53:23;99780.63;;;10.14;95.75
33697;BME280;20031;43.416;23.232;2023-11-22T08:55:49;99776.56;;;10.11;95.29
33697;BME280;20031;43.416;23.232;2023-11-22T08:58:15;99786.16;;;10.11;95.57
33697;BME280;20031;43.416;23.232;2023-11-22T09:00:41;99794.13;;;10.09;95.35
33697;BME280;20031;43.416;23.232;2023-11-22T09:03:07;99785.38;;;10.10;95.54
33697;BME280;20031;43.416;23.232;2023-11-22T09:05:34;99776.72;;;10.10;95.91
33697;BME280;20031;43.416;23.232;2023-11-22T09:07:59;99786.34;;;10.17;95.93
33697;BME280;20031;43.416;23.232;2023-11-22T09:10:25;99785.19;;;10.19;95.48
33697;BME280;20031;43.416;23.232;2023-11-22T09:12:52;99787.63;;;10.21;95.62
33697;BME280;20031;43.416;23.232;2023-11-22T09:15:17;99782.41;;;10.21;95.47
33697;BME280;20031;43.416;23.232;2023-11-22T09:17:49;99779.03;;;10.28;95.62
33697;BME280;20031;43.416;23.232;2023-11-22T09:20:15;99784.06;;;10.30;95.36
33697;BME280;20031;43.416;23.232;2023-11-22T09:22:50;99793.00;;;10.27;95.54
33697;BME280;20031;43.416;23.232;2023-11-22T09:25:25;99783.88;;;10.23;95.19
33697;BME280;20031;43.416;23.232;2023-11-22T09:27:53;99783.09;;;10.23;95.13
33697;BME280;20031;43.416;23.232;2023-11-22T09:30:28;99790.06;;;10.22;94.81
33697;BME280;20031;43.416;23.232;2023-11-22T09:33:04;99788.63;;;10.20;94.85
33697;BME280;20031;43.416;23.232;2023-11-22T09:35:31;99791.22;;;10.20;94.88
33697;BME280;20031;43.416;23.232;2023-11-22T09:38:06;99785.19;;;10.19;95.37
33697;BME280;20031;43.416;23.232;2023-11-22T09:40:35;99781.78;;;10.19;95.09
33697;BME280;20031;43.416;23.232;2023-11-22T09:43:02;99786.81;;;10.20;94.76
33697;BME280;20031;43.416;23.232;2023-11-22T09:45:28;99790.38;;;10.19;95.15
33697;BME280;20031;43.416;23.232;2023-11-22T09:47:58;99788.47;;;10.21;94.67
33697;BME280;20031;43.416;23.232;2023-11-22T09:53:34;99788.59;;;10.28;95.16
33697;BME280;20031;43.416;23.232;2023-11-22T09:56:01;99795.44;;;10.29;94.98
33697;BME280;20031;43.416;23.232;2023-11-22T09:58:32;99795.44;;;10.29;94.74
33697;BME280;20031;43.416;23.232;2023-11-22T10:01:02;99802.44;;;10.28;95.01
33697;BME280;20031;43.416;23.232;2023-11-22T10:03:29;99795.44;;;10.29;95.15
33697;BME280;20031;43.416;23.232;2023-11-22T10:05:58;99799.53;;;10.31;95.03
33697;BME280;20031;43.416;23.232;2023-11-22T10:08:27;99801.63;;;10.36;95.05
33697;BME280;20031;43.416;23.232;2023-11-22T10:10:54;99799.34;;;10.33;94.39
33697;BME280;20031;43.416;23.232;2023-11-22T10:13:21;99798.69;;;10.31;94.60
33697;BME280;20031;43.416;23.232;2023-11-22T10:15:50;99799.69;;;10.30;94.42
33697;BME280;20031;43.416;23.232;2023-11-22T10:18:16;99802.28;;;10.30;94.79
33697;BME280;20031;43.416;23.232;2023-11-22T10:20:44;99800.66;;;10.29;93.99
33697;BME280;20031;43.416;23.232;2023-11-22T10:23:13;99803.41;;;10.27;94.37
33697;BME280;20031;43.416;23.232;2023-11-22T10:25:52;99802.44;;;10.28;94.50
33697;BME280;20031;43.416;23.232;2023-11-22T10:28:18;99807.31;;;10.31;94.65
33697;BME280;20031;43.416;23.232;2023-11-22T10:30:49;99805.84;;;10.29;94.39
33697;BME280;20031;43.416;23.232;2023-11-22T10:33:17;99814.47;;;10.29;94.43
33697;BME280;20031;43.416;23.232;2023-11-22T10:35:47;99805.06;;;10.28;94.14
33697;BME280;20031;43.416;23.232;2023-11-22T10:38:20;99805.06;;;10.28;94.12
33697;BME280;20031;43.416;23.232;2023-11-22T10:40:46;99811.38;;;10.26;94.13
33697;BME280;20031;43.416;23.232;2023-11-22T10:43:16;99813.31;;;10.24;94.30
33697;BME280;20031;43.416;23.232;2023-11-22T10:45:44;99823.44;;;10.27;94.44
33697;BME280;20031;43.416;23.232;2023-11-22T10:48:14;99821.28;;;10.22;94.06
33697;BME280;20031;43.416;23.232;2023-11-22T10:50:44;99824.88;;;10.21;94.05
33697;BME280;20031;43.416;23.232;2023-11-22T10:53:20;99825.06;;;10.20;94.28
33697;BME280;20031;43.416;23.232;2023-11-22T10:55:48;99824.06;;;10.21;94.09
33697;BME280;20031;43.416;23.232;2023-11-22T10:58:14;99829.41;;;10.19;94.12
33697;BME280;20031;43.416;23.232;2023-11-22T11:00:41;99830.09;;;10.21;94.35
33697;BME280;20031;43.416;23.232;2023-11-22T11:03:13;99839.34;;;10.24;94.02
33697;BME280;20031;43.416;23.232;2023-11-22T11:05:51;99839.81;;;10.19;93.89
33697;BME280;20031;43.416;23.232;2023-11-22T11:08:21;99840.31;;;10.15;93.76
33697;BME280;20031;43.416;23.232;2023-11-22T11:10:48;99851.72;;;10.14;94.19
33697;BME280;20031;43.416;23.232;2023-11-22T11:13:17;99856.25;;;10.12;93.75
33697;BME280;20031;43.416;23.232;2023-11-22T11:15:43;99859.66;;;10.13;93.84
33697;BME280;20031;43.416;23.232;2023-11-22T11:18:13;99865.19;;;10.10;93.86
33697;BME280;20031;43.416;23.232;2023-11-22T11:20:51;99857.38;;;10.10;94.24
33697;BME280;20031;43.416;23.232;2023-11-22T11:23:30;99852.69;;;10.13;94.46
33697;BME280;20031;43.416;23.232;2023-11-22T11:25:59;99852.69;;;10.13;93.87
33697;BME280;20031;43.416;23.232;2023-11-22T11:28:42;99847.81;;;10.10;93.60
33697;BME280;20031;43.416;23.232;2023-11-22T11:31:09;99852.34;;;10.08;94.23
33697;BME280;20031;43.416;23.232;2023-11-22T11:33:36;99843.91;;;10.06;93.95
33697;BME280;20031;43.416;23.232;2023-11-22T11:38:48;99858.53;;;10.07;94.03
33697;BME280;20031;43.416;23.232;2023-11-22T11:41:14;99863.41;;;10.10;94.47
33697;BME280;20031;43.416;23.232;2023-11-22T11:46:25;99871.22;;;10.10;94.15
33697;BME280;20031;43.416;23.232;2023-11-22T11:48:53;99872.19;;;10.09;94.01
33697;BME280;20031;43.416;23.232;2023-11-22T11:51:23;99868.94;;;10.07;94.35
33697;BME280;20031;43.416;23.232;2023-11-22T11:53:49;99872.19;;;10.09;94.54
33697;BME280;20031;43.416;23.232;2023-11-22T11:56:14;99873.81;;;10.10;94.42
33697;BME280;20031;43.416;23.232;2023-11-22T11:58:44;99874.31;;;10.14;94.36
33697;BME280;20031;43.416;23.232;2023-11-22T12:01:14;99873.50;;;10.13;93.87
33697;BME280;20031;43.416;23.232;2023-11-22T12:03:42;99872.66;;;10.13;94.59
33697;BME280;20031;43.416;23.232;2023-11-22T12:06:09;99877.22;;;10.11;94.63
33697;BME280;20031;43.416;23.232;2023-11-22T12:08:35;99879.34;;;10.07;94.34
33697;BME280;20031;43.416;23.232;2023-11-22T12:11:05;99886.47;;;10.05;94.43
33697;BME280;20031;43.416;23.232;2023-11-22T12:13:33;99883.41;;;10.02;94.38
33697;BME280;20031;43.416;23.232;2023-11-22T12:16:00;99888.59;;;10.02;94.60
33697;BME280;20031;43.416;23.232;2023-11-22T12:18:29;99894.78;;;10.01;94.13
33697;BME280;20031;43.416;23.232;2023-11-22T12:20:58;99888.44;;;10.03;95.01
33697;BME280;20031;43.416;23.232;2023-11-22T12:23:27;99897.06;;;10.04;94.65
33697;BME280;20031;43.416;23.232;2023-11-22T12:25:57;99896.25;;;10.03;95.29
33697;BME280;20031;43.416;23.232;2023-11-22T12:28:31;99899.16;;;10.08;94.92
33697;BME280;20031;43.416;23.232;2023-11-22T12:31:07;99898.69;;;10.05;94.53
33697;BME280;20031;43.416;23.232;2023-11-22T12:33:34;99904.06;;;10.03;94.48
33697;BME280;20031;43.416;23.232;2023-11-22T12:36:00;99904.38;;;10.08;94.96
33697;BME280;20031;43.416;23.232;2023-11-22T12:38:27;99906.00;;;10.09;94.80
33697;BME280;20031;43.416;23.232;2023-11-22T12:40:57;99904.22;;;10.10;94.54
33697;BME280;20031;43.416;23.232;2023-11-22T12:43:22;99905.38;;;10.15;94.81
33697;BME280;20031;43.416;23.232;2023-11-22T12:45:58;99905.38;;;10.15;94.61
33697;BME280;20031;43.416;23.232;2023-11-22T12:48:25;99911.56;;;10.14;94.60
33697;BME280;20031;43.416;23.232;2023-11-22T12:50:51;99914.00;;;10.16;94.76
33697;BME280;20031;43.416;23.232;2023-11-22T12:53:18;99916.63;;;10.16;94.75
33697;BME280;20031;43.416;23.232;2023-11-22T12:55:50;99913.69;;;10.18;94.91
33697;BME280;20031;43.416;23.232;2023-11-22T12:58:19;99920.66;;;10.18;95.08
33697;BME280;20031;43.416;23.232;2023-11-22T13:00:46;99928.47;;;10.18;94.12
33697;BME280;20031;43.416;23.232;2023-11-22T13:03:13;99926.03;;;10.17;94.81
33697;BME280;20031;43.416;23.232;2023-11-22T13:05:39;99929.91;;;10.13;94.45